KNGU/NGU METAR and TAF weather

Enter ICAO airport designator
Station Type Date Time Source
KNGU METAR 2022/11/30 09:59 UTC NOAA

KNGU 300959Z 14007KT 10SM SCT055 BKN070 14/12 A3008 RMK AO2 SLP186 T01390122


Station Type Date Time Source
KNGU Decoded METAR 2022/11/30 09:59 UTC NOAA

Norfolk, Naval Air Station, VA, United States (KNGU) 36-56-01N 076-17-45W 8M
Nov 30, 2022 - 04:59 AM EST / 2022.11.30 0959 UTC
Wind: from the SE (140 degrees) at 8 MPH (7 KT):0
Visibility: 10 mile(s):0
Sky conditions: mostly cloudy
Temperature: 57.0 F (13.9 C)
Dew Point: 54.0 F (12.2 C)
Relative Humidity: 89%
Pressure (altimeter): 30.08 in. Hg (1018 hPa)
ob: KNGU 300959Z 14007KT 10SM SCT055 BKN070 14/12 A3008 RMK AO2 SLP186 T01390122
cycle: 10

Station Type Date Time Source
KNGU TAF 2022/11/30 07:55 UTC NOAA

TAF KNGU 3007/0107 15010KT 9999 BKN050 OVC150 QNH3004INS
BECMG 3012/3014 19015G23KT 8000 RA BKN010 OVC040 QNH2989INS
TEMPO 3014/3020 3200 +RA BR OVC010
FM302000 24015G23KT 9000 SHRA BR BKN020 BKN040 OVC080 QNH2990INS
BECMG 0100/0102 30012KT 9999 NSW SKC QNH3002INS T16/3021Z T06/0107Z FN00247

Example: see airport list